Atlanta, Louisiana
Current Conditions -  °F | °C
As of 2:55 AM on Thursday 23 Oct 2014 (Local Time) from KIER Reporting Station
Clear Clear  
Wind Chill: 55°   Ceiling: Unl
Heat Index: 55°   Visibility: 10mi
Dew Point: 51°   Wind: 5mph
Humidity: 88%   Direction: 50°NE
Pressure: 30.12"   Gusts: NA
Location:  31.81°N, 92.74°W
Report Text: KIER 230755Z AUTO 05004KT 10SM CLR 13/11 A3012 RMK AO2 T01250105
Loading
Personal Weather Stations






























Interactive Weather Map New forecast layout! Learn more

10-Day Weather Forecast

Advertisements
Track Severe Weather on mobile